Time;durP1;ratioP1;P1;durP2;ratioP2;P2;SDS_P1;SDS_P2;PMS_P1;PMS_P2;Temp;Humidity;BMP_temperature;BMP_pressure;BME280_temperature;BME280_humidity;BME280_pressure;Samples;Min_cycle;Max_cycle;Signal;HPM_P1;HPM_P2
2023/07/08 00:02:18;;;;;;;10.82;3.70;;;;;;;;;;4999185;28;20455;-75
2023/07/08 00:04:46;;;;;;;9.23;4.07;;;;;;;;;;4998270;28;20067;-73
2023/07/08 00:07:18;;;;;;;7.40;3.72;;;;;;;;;;4997874;28;20060;-77
2023/07/08 00:09:47;;;;;;;8.35;3.70;;;;;;;;;;4999996;28;20046;-76
2023/07/08 00:12:15;;;;;;;8.52;3.28;;;;;;;;;;4999911;28;20514;-76
2023/07/08 00:14:43;;;;;;;8.85;4.18;;;;;;;;;;4999089;28;20147;-77
2023/07/08 00:17:13;;;;;;;7.68;3.90;;;;;;;;;;4997710;28;20165;-69
2023/07/08 00:19:41;;;;;;;7.50;3.95;;;;;;;;;;4999355;28;20100;-74
2023/07/08 00:22:13;;;;;;;7.53;4.05;;;;;;;;;;4999861;28;20053;-75
2023/07/08 00:24:43;;;;;;;11.65;4.20;;;;;;;;;;4999938;28;20097;-76
2023/07/08 00:27:13;;;;;;;8.63;4.43;;;;;;;;;;4998124;28;20136;-75
2023/07/08 00:29:41;;;;;;;8.93;4.20;;;;;;;;;;4999736;28;20057;-76
2023/07/08 00:32:11;;;;;;;7.25;3.78;;;;;;;;;;4996382;28;20070;-71
2023/07/08 00:34:40;;;;;;;10.20;3.95;;;;;;;;;;4998447;28;20053;-76
2023/07/08 00:37:10;;;;;;;6.95;3.30;;;;;;;;;;4998196;28;20116;-76
2023/07/08 00:39:39;;;;;;;9.07;4.05;;;;;;;;;;4999586;28;20609;-75
2023/07/08 00:42:13;;;;;;;7.50;3.17;;;;;;;;;;4999243;28;20449;-75
2023/07/08 00:44:42;;;;;;;10.07;4.68;;;;;;;;;;4997331;28;20491;-72
2023/07/08 00:47:12;;;;;;;11.75;4.25;;;;;;;;;;4998872;28;20054;-75
2023/07/08 00:49:43;;;;;;;9.95;3.85;;;;;;;;;;5000056;28;20074;-73
2023/07/08 00:52:19;;;;;;;8.85;3.90;;;;;;;;;;4998617;28;20053;-77
2023/07/08 00:54:48;;;;;;;8.45;4.07;;;;;;;;;;4997945;28;20125;-76
2023/07/08 00:57:18;;;;;;;9.50;4.22;;;;;;;;;;4999084;28;20572;-75
2023/07/08 00:59:48;;;;;;;8.95;4.35;;;;;;;;;;4998697;28;20077;-76
2023/07/08 01:02:19;;;;;;;6.78;3.70;;;;;;;;;;5022527;22;20319;-72
2023/07/08 01:04:51;;;;;;;10.90;4.18;;;;;;;;;;5040499;28;20114;-65
2023/07/08 01:07:21;;;;;;;7.22;3.47;;;;;;;;;;5042887;28;20041;-65
2023/07/08 01:09:56;;;;;;;6.63;3.80;;;;;;;;;;5042806;28;20103;-65
2023/07/08 01:12:27;;;;;;;10.55;4.25;;;;;;;;;;5041152;28;20056;-67
2023/07/08 01:14:56;;;;;;;8.15;3.58;;;;;;;;;;5040426;28;20491;-68
2023/07/08 01:17:24;;;;;;;8.23;4.03;;;;;;;;;;5038652;28;20462;-64
2023/07/08 01:19:55;;;;;;;8.25;4.10;;;;;;;;;;5033627;28;20707;-69
2023/07/08 01:22:25;;;;;;;9.35;3.92;;;;;;;;;;5036997;28;20544;-68
2023/07/08 01:24:53;;;;;;;9.25;4.03;;;;;;;;;;5039343;28;20484;-66
2023/07/08 01:27:22;;;;;;;8.27;3.63;;;;;;;;;;5039885;28;20052;-66
2023/07/08 01:29:51;;;;;;;8.60;3.78;;;;;;;;;;5038257;28;20115;-72
2023/07/08 01:32:19;;;;;;;7.30;3.72;;;;;;;;;;5031528;28;20435;-71
2023/07/08 01:34:59;;;;;;;7.78;4.20;;;;;;;;;;5036827;28;20053;-71
2023/07/08 01:37:34;;;;;;;10.25;3.88;;;;;;;;;;5038524;28;20382;-64
2023/07/08 01:40:16;;;;;;;7.65;3.97;;;;;;;;;;5036321;28;20095;-72
2023/07/08 01:42:44;;;;;;;11.93;4.20;;;;;;;;;;5038283;28;20084;-65
2023/07/08 01:45:13;;;;;;;10.15;3.92;;;;;;;;;;5039805;28;20597;-66
2023/07/08 01:47:43;;;;;;;9.35;3.78;;;;;;;;;;5032599;28;20134;-71
2023/07/08 01:50:12;;;;;;;8.88;4.47;;;;;;;;;;5035504;28;20750;-65
2023/07/08 01:52:42;;;;;;;7.72;4.00;;;;;;;;;;5038074;28;20231;-65
2023/07/08 01:55:10;;;;;;;8.48;3.33;;;;;;;;;;5037861;28;20474;-64
2023/07/08 01:57:38;;;;;;;9.18;4.00;;;;;;;;;;5038663;28;20469;-63
2023/07/08 02:00:08;;;;;;;6.93;3.40;;;;;;;;;;5038580;28;20454;-64
2023/07/08 02:02:36;;;;;;;10.75;4.32;;;;;;;;;;5039266;28;20064;-66
2023/07/08 02:05:05;;;;;;;8.90;3.47;;;;;;;;;;5040739;28;20049;-64
2023/07/08 02:07:33;;;;;;;8.30;4.07;;;;;;;;;;5042313;28;20420;-64
2023/07/08 02:10:03;;;;;;;6.15;3.65;;;;;;;;;;5044301;28;20106;-71
2023/07/08 02:12:31;;;;;;;10.60;3.83;;;;;;;;;;5040316;28;20053;-68
2023/07/08 02:15:01;;;;;;;7.50;4.05;;;;;;;;;;5042973;28;20141;-65
2023/07/08 02:17:29;;;;;;;7.78;3.33;;;;;;;;;;5042312;28;20139;-64
2023/07/08 02:19:58;;;;;;;9.68;3.78;;;;;;;;;;5042720;28;20045;-65
2023/07/08 02:22:26;;;;;;;7.85;3.85;;;;;;;;;;5042703;28;20164;-68
2023/07/08 02:24:54;;;;;;;7.13;3.72;;;;;;;;;;5039736;28;20057;-69
2023/07/08 02:27:24;;;;;;;6.28;3.05;;;;;;;;;;5041834;28;20144;-63
2023/07/08 02:29:52;;;;;;;9.65;3.30;;;;;;;;;;5044525;28;20041;-67
2023/07/08 02:32:21;;;;;;;9.45;3.58;;;;;;;;;;5042101;28;20546;-65
2023/07/08 02:34:51;;;;;;;7.72;3.80;;;;;;;;;;5040374;28;20049;-68
2023/07/08 02:37:20;;;;;;;7.10;3.63;;;;;;;;;;5042656;28;20053;-64
2023/07/08 02:39:48;;;;;;;7.10;3.20;;;;;;;;;;5039262;28;20533;-66
2023/07/08 02:42:17;;;;;;;8.05;3.75;;;;;;;;;;5043122;28;20055;-67
2023/07/08 02:44:46;;;;;;;6.85;3.47;;;;;;;;;;5040626;28;20068;-65
2023/07/08 02:47:15;;;;;;;7.57;3.42;;;;;;;;;;5035895;28;20099;-71
2023/07/08 02:49:43;;;;;;;7.35;3.45;;;;;;;;;;5042411;28;20658;-64
2023/07/08 02:52:12;;;;;;;6.47;3.38;;;;;;;;;;5042189;28;20041;-63
2023/07/08 02:54:40;;;;;;;9.95;3.70;;;;;;;;;;5044366;28;20122;-65
2023/07/08 02:57:09;;;;;;;7.85;3.80;;;;;;;;;;5041446;28;20159;-65
2023/07/08 02:59:38;;;;;;;7.78;4.03;;;;;;;;;;5041448;28;20049;-63
2023/07/08 03:02:07;;;;;;;9.75;3.78;;;;;;;;;;5044220;28;20421;-65
2023/07/08 03:04:39;;;;;;;11.68;3.78;;;;;;;;;;5040222;28;20190;-66
2023/07/08 03:07:11;;;;;;;9.35;4.13;;;;;;;;;;5036654;28;20143;-66
2023/07/08 03:09:40;;;;;;;7.68;3.42;;;;;;;;;;5036740;28;20136;-71
2023/07/08 03:12:09;;;;;;;10.90;3.50;;;;;;;;;;5038200;28;20188;-70
2023/07/08 03:14:37;;;;;;;7.15;3.65;;;;;;;;;;5042744;28;20251;-66
2023/07/08 03:17:06;;;;;;;10.20;4.45;;;;;;;;;;5040079;28;20421;-63
2023/07/08 03:19:36;;;;;;;8.60;3.83;;;;;;;;;;5041627;28;20061;-63
2023/07/08 03:22:05;;;;;;;9.75;4.40;;;;;;;;;;5038055;28;20148;-66
2023/07/08 03:24:34;;;;;;;10.30;4.05;;;;;;;;;;5029436;28;20135;-65
2023/07/08 03:27:04;;;;;;;8.07;4.20;;;;;;;;;;5039465;28;20136;-66
2023/07/08 03:29:33;;;;;;;9.77;4.60;;;;;;;;;;5038866;28;20482;-63
2023/07/08 03:32:01;;;;;;;10.98;4.30;;;;;;;;;;5039276;28;20049;-70
2023/07/08 03:34:30;;;;;;;8.43;3.97;;;;;;;;;;5040160;28;20455;-68
2023/07/08 03:36:59;;;;;;;10.57;4.45;;;;;;;;;;5040623;28;20547;-67
2023/07/08 03:39:28;;;;;;;11.27;3.92;;;;;;;;;;5038583;28;20134;-67
2023/07/08 03:41:56;;;;;;;10.27;3.88;;;;;;;;;;5037671;28;20049;-65
2023/07/08 03:44:24;;;;;;;14.27;3.83;;;;;;;;;;5043467;28;20103;-63
2023/07/08 03:46:53;;;;;;;8.85;4.32;;;;;;;;;;5037693;28;20120;-65
2023/07/08 03:49:23;;;;;;;10.43;4.70;;;;;;;;;;5036989;28;20687;-64
2023/07/08 03:51:53;;;;;;;8.80;3.78;;;;;;;;;;5041649;28;20171;-64
2023/07/08 03:54:23;;;;;;;10.38;4.20;;;;;;;;;;5040949;28;20053;-63
2023/07/08 03:56:52;;;;;;;11.13;3.78;;;;;;;;;;5041259;28;20041;-70
2023/07/08 03:59:20;;;;;;;7.72;3.58;;;;;;;;;;5036158;28;20156;-67
2023/07/08 04:01:49;;;;;;;10.27;4.28;;;;;;;;;;5038007;28;20849;-71
2023/07/08 04:04:17;;;;;;;8.45;4.13;;;;;;;;;;5041070;28;20056;-65
2023/07/08 04:06:46;;;;;;;8.93;4.40;;;;;;;;;;5040104;28;20531;-65
2023/07/08 04:09:14;;;;;;;8.35;4.18;;;;;;;;;;5037900;28;20053;-66
2023/07/08 04:11:44;;;;;;;6.93;3.97;;;;;;;;;;5039062;28;20565;-71
2023/07/08 04:14:13;;;;;;;8.80;4.28;;;;;;;;;;5039562;28;20118;-64
2023/07/08 04:16:51;;;;;;;8.88;4.18;;;;;;;;;;5043076;28;20395;-65
2023/07/08 04:19:19;;;;;;;8.90;3.67;;;;;;;;;;5040242;28;20052;-64
2023/07/08 04:21:48;;;;;;;7.85;4.00;;;;;;;;;;5043008;28;20653;-65
2023/07/08 04:24:17;;;;;;;8.48;4.00;;;;;;;;;;5038253;28;20115;-64
2023/07/08 04:26:47;;;;;;;9.05;3.92;;;;;;;;;;5035296;28;20048;-69
2023/07/08 04:29:16;;;;;;;14.48;4.43;;;;;;;;;;5037194;28;20045;-65
2023/07/08 04:31:45;;;;;;;6.88;3.47;;;;;;;;;;5041035;28;21572;-67
2023/07/08 04:34:13;;;;;;;10.63;4.22;;;;;;;;;;5039208;28;20091;-65
2023/07/08 04:36:41;;;;;;;8.55;4.18;;;;;;;;;;5040725;28;20096;-64
2023/07/08 04:39:10;;;;;;;8.30;4.13;;;;;;;;;;5037912;28;20167;-63
2023/07/08 04:41:40;;;;;;;11.30;4.13;;;;;;;;;;5045572;28;20142;-64
2023/07/08 04:44:11;;;;;;;8.85;3.75;;;;;;;;;;5039974;28;20303;-63
2023/07/08 04:46:41;;;;;;;7.45;3.83;;;;;;;;;;5044512;28;20049;-64
2023/07/08 04:49:10;;;;;;;9.50;4.15;;;;;;;;;;5041680;28;20053;-72
2023/07/08 04:51:39;;;;;;;13.00;4.38;;;;;;;;;;5041938;28;20098;-66
2023/07/08 04:54:07;;;;;;;12.80;4.35;;;;;;;;;;5042516;28;20083;-63
2023/07/08 04:56:37;;;;;;;7.93;3.50;;;;;;;;;;5044296;28;21080;-62
2023/07/08 04:59:06;;;;;;;11.63;3.75;;;;;;;;;;5038670;28;20056;-68
2023/07/08 05:01:36;;;;;;;9.70;4.32;;;;;;;;;;5038699;28;20474;-63
2023/07/08 05:04:05;;;;;;;8.65;3.47;;;;;;;;;;5041130;28;20045;-65
2023/07/08 05:06:35;;;;;;;7.40;3.75;;;;;;;;;;5037363;28;20664;-64
2023/07/08 05:09:03;;;;;;;9.02;3.78;;;;;;;;;;5039669;28;20049;-66
2023/07/08 05:11:32;;;;;;;8.73;3.53;;;;;;;;;;5037728;28;20497;-64
2023/07/08 05:14:01;;;;;;;7.82;3.60;;;;;;;;;;5037847;28;20041;-66
2023/07/08 05:16:30;;;;;;;6.05;3.08;;;;;;;;;;5038630;28;20048;-66
2023/07/08 05:18:59;;;;;;;9.15;4.22;;;;;;;;;;5034220;28;20126;-62
2023/07/08 05:21:33;;;;;;;8.63;3.58;;;;;;;;;;5041158;28;20083;-65
2023/07/08 05:24:01;;;;;;;8.25;3.70;;;;;;;;;;5039786;28;20082;-65
2023/07/08 05:26:30;;;;;;;7.32;3.63;;;;;;;;;;5038264;28;20048;-64
2023/07/08 05:28:58;;;;;;;7.18;3.35;;;;;;;;;;5035982;28;20564;-64
2023/07/08 05:31:26;;;;;;;8.52;3.42;;;;;;;;;;5038882;28;20049;-63
2023/07/08 05:34:15;;;;;;;7.90;3.85;;;;;;;;;;5037987;28;20124;-63
2023/07/08 05:36:44;;;;;;;11.60;3.97;;;;;;;;;;5039686;28;20513;-63
2023/07/08 05:39:12;;;;;;;7.95;3.70;;;;;;;;;;5037896;28;20053;-65
2023/07/08 05:41:41;;;;;;;8.60;4.50;;;;;;;;;;5035724;28;20539;-66
2023/07/08 05:44:09;;;;;;;8.77;3.80;;;;;;;;;;5037993;28;20103;-63
2023/07/08 05:46:39;;;;;;;6.50;3.03;;;;;;;;;;5037496;28;20041;-69
2023/07/08 05:49:07;;;;;;;9.02;3.80;;;;;;;;;;5038224;28;20049;-65
2023/07/08 05:51:38;;;;;;;9.00;4.25;;;;;;;;;;5039873;28;20391;-70
2023/07/08 05:54:06;;;;;;;7.45;3.70;;;;;;;;;;5038696;28;20143;-63
2023/07/08 05:56:34;;;;;;;7.65;4.13;;;;;;;;;;5040240;28;20139;-63
2023/07/08 05:59:03;;;;;;;7.63;3.80;;;;;;;;;;5039196;28;20057;-69
2023/07/08 06:01:32;;;;;;;9.27;4.50;;;;;;;;;;5040161;28;20049;-64
2023/07/08 06:04:00;;;;;;;7.20;3.45;;;;;;;;;;5040673;28;20137;-65
2023/07/08 06:06:29;;;;;;;6.97;3.65;;;;;;;;;;5039392;28;20205;-64
2023/07/08 06:09:00;;;;;;;7.40;3.70;;;;;;;;;;5030863;28;20068;-64
2023/07/08 06:11:28;;;;;;;7.63;3.70;;;;;;;;;;5040575;28;20124;-69
2023/07/08 06:14:00;;;;;;;9.57;3.83;;;;;;;;;;5041724;28;20140;-65
2023/07/08 06:16:29;;;;;;;7.55;3.85;;;;;;;;;;5040363;28;20456;-66
2023/07/08 06:19:08;;;;;;;9.32;3.63;;;;;;;;;;5038806;28;20044;-63
2023/07/08 06:21:36;;;;;;;8.48;3.65;;;;;;;;;;5041502;28;20049;-64
2023/07/08 06:24:07;;;;;;;10.10;4.07;;;;;;;;;;5041398;28;20041;-66
2023/07/08 06:26:35;;;;;;;7.88;3.45;;;;;;;;;;5041886;28;20053;-64
2023/07/08 06:29:03;;;;;;;7.53;3.63;;;;;;;;;;5038677;28;20055;-63
2023/07/08 06:31:32;;;;;;;8.40;4.07;;;;;;;;;;5035768;28;20122;-68
2023/07/08 06:34:01;;;;;;;7.82;4.57;;;;;;;;;;5042952;28;20116;-71
2023/07/08 06:36:29;;;;;;;7.72;3.83;;;;;;;;;;5035301;28;20115;-70
2023/07/08 06:38:58;;;;;;;8.80;4.25;;;;;;;;;;5036824;28;20616;-66
2023/07/08 06:41:27;;;;;;;8.55;4.03;;;;;;;;;;5037754;28;20080;-64
2023/07/08 06:43:56;;;;;;;9.40;3.78;;;;;;;;;;5037680;28;20068;-64
2023/07/08 06:46:24;;;;;;;7.30;3.97;;;;;;;;;;5038128;28;20060;-64
2023/07/08 06:48:53;;;;;;;11.75;4.78;;;;;;;;;;5040967;28;20053;-64
2023/07/08 06:51:22;;;;;;;9.85;4.20;;;;;;;;;;5038164;28;20037;-65
2023/07/08 06:53:50;;;;;;;8.82;4.15;;;;;;;;;;5042253;28;20176;-71
2023/07/08 06:56:19;;;;;;;11.82;4.80;;;;;;;;;;5041151;28;20084;-71
2023/07/08 06:58:48;;;;;;;11.63;4.80;;;;;;;;;;5042596;28;20462;-65
2023/07/08 07:01:17;;;;;;;10.18;4.20;;;;;;;;;;5044207;28;20090;-65
2023/07/08 07:03:46;;;;;;;10.30;4.30;;;;;;;;;;5044093;28;20307;-70
2023/07/08 07:06:14;;;;;;;10.68;4.53;;;;;;;;;;5041933;28;20132;-66
2023/07/08 07:08:43;;;;;;;9.43;4.10;;;;;;;;;;5043495;28;20048;-66
2023/07/08 07:11:11;;;;;;;11.98;5.10;;;;;;;;;;5041112;28;20135;-68
2023/07/08 07:13:39;;;;;;;9.85;4.20;;;;;;;;;;5042843;28;20555;-66
2023/07/08 07:16:09;;;;;;;8.57;3.85;;;;;;;;;;5043883;28;20052;-65
2023/07/08 07:18:37;;;;;;;8.48;4.00;;;;;;;;;;5045184;28;20055;-64
2023/07/08 07:21:06;;;;;;;10.18;4.55;;;;;;;;;;5040400;28;20617;-65
2023/07/08 07:23:35;;;;;;;13.13;4.55;;;;;;;;;;5036230;28;20572;-69
2023/07/08 07:26:04;;;;;;;10.35;4.38;;;;;;;;;;5037421;28;20068;-64
2023/07/08 07:28:32;;;;;;;8.35;4.40;;;;;;;;;;5039389;28;20045;-69
2023/07/08 07:31:01;;;;;;;11.23;4.47;;;;;;;;;;5037610;28;20122;-70
2023/07/08 07:33:31;;;;;;;10.68;4.55;;;;;;;;;;5042365;28;20473;-67
2023/07/08 07:36:00;;;;;;;12.60;5.03;;;;;;;;;;5042071;28;20080;-65
2023/07/08 07:38:29;;;;;;;16.33;4.60;;;;;;;;;;5040800;28;20072;-66
2023/07/08 07:40:59;;;;;;;10.63;4.55;;;;;;;;;;5035025;28;20417;-66
2023/07/08 07:43:28;;;;;;;12.38;4.70;;;;;;;;;;5037101;28;20040;-71
2023/07/08 07:45:56;;;;;;;10.95;5.00;;;;;;;;;;5031775;28;20547;-69
2023/07/08 07:48:25;;;;;;;8.52;4.10;;;;;;;;;;5037130;28;20052;-70
2023/07/08 07:50:55;;;;;;;9.20;4.30;;;;;;;;;;5035139;28;20224;-70
2023/07/08 07:53:24;;;;;;;9.77;4.55;;;;;;;;;;5038999;28;20509;-70
2023/07/08 07:55:57;;;;;;;10.10;4.47;;;;;;;;;;5037936;28;20107;-70
2023/07/08 07:58:26;;;;;;;19.10;5.27;;;;;;;;;;5039359;28;20044;-73
2023/07/08 08:00:54;;;;;;;9.27;4.95;;;;;;;;;;5039112;28;20060;-71
2023/07/08 08:03:23;;;;;;;9.65;4.70;;;;;;;;;;5036687;28;20083;-70
2023/07/08 08:05:51;;;;;;;8.75;4.50;;;;;;;;;;5028536;28;20543;-71
2023/07/08 08:08:22;;;;;;;10.23;5.13;;;;;;;;;;5020832;28;20137;-73
2023/07/08 08:10:50;;;;;;;11.32;4.93;;;;;;;;;;5037419;28;20119;-73
2023/07/08 08:13:19;;;;;;;10.90;4.70;;;;;;;;;;5034985;28;20072;-72
2023/07/08 08:15:47;;;;;;;11.38;4.70;;;;;;;;;;5034051;28;20751;-70
2023/07/08 08:18:16;;;;;;;11.10;4.43;;;;;;;;;;5032402;28;20582;-71
2023/07/08 08:20:44;;;;;;;11.27;4.75;;;;;;;;;;5036625;28;20135;-70
2023/07/08 08:23:12;;;;;;;13.32;5.00;;;;;;;;;;5037058;28;20084;-68
2023/07/08 08:25:42;;;;;;;10.32;4.15;;;;;;;;;;5032807;28;20737;-73
2023/07/08 08:28:10;;;;;;;13.75;5.35;;;;;;;;;;5031647;28;20135;-71
2023/07/08 08:30:39;;;;;;;10.02;4.80;;;;;;;;;;5038148;28;20368;-71
2023/07/08 08:33:07;;;;;;;9.05;4.68;;;;;;;;;;5036676;28;20051;-73
2023/07/08 08:35:36;;;;;;;8.77;4.45;;;;;;;;;;5038632;28;20071;-71
2023/07/08 08:38:05;;;;;;;6.85;4.38;;;;;;;;;;5036863;28;20148;-71
2023/07/08 08:40:33;;;;;;;12.32;4.25;;;;;;;;;;5038277;28;20053;-71
2023/07/08 08:43:04;;;;;;;8.05;4.55;;;;;;;;;;5018351;28;20051;-70
2023/07/08 08:45:36;;;;;;;8.77;4.75;;;;;;;;;;5036127;28;20140;-74
2023/07/08 08:48:06;;;;;;;7.03;4.03;;;;;;;;;;5026946;28;20131;-74
2023/07/08 08:50:38;;;;;;;10.10;4.85;;;;;;;;;;5034229;28;20053;-71
2023/07/08 08:53:10;;;;;;;7.00;4.38;;;;;;;;;;5035603;28;20040;-70
2023/07/08 08:55:38;;;;;;;9.25;4.68;;;;;;;;;;5027992;28;20052;-73
2023/07/08 08:58:19;;;;;;;10.05;4.50;;;;;;;;;;5038043;28;20398;-71
2023/07/08 09:00:51;;;;;;;9.50;4.47;;;;;;;;;;5035603;28;20552;-70
2023/07/08 09:03:34;;;;;;;11.68;5.15;;;;;;;;;;5036268;28;20509;-70
2023/07/08 09:06:09;;;;;;;11.73;4.95;;;;;;;;;;5032210;28;20041;-70
2023/07/08 09:08:37;;;;;;;;;;;;;;;;;;5036426;28;20085;-72
2023/07/08 09:11:13;;;;;;;14.18;4.82;;;;;;;;;;5038782;28;20014;-71
2023/07/08 09:13:43;;;;;;;10.20;4.88;;;;;;;;;;5033587;28;20124;-72
2023/07/08 09:16:17;;;;;;;9.65;4.22;;;;;;;;;;5035198;28;20045;-70
2023/07/08 09:18:51;;;;;;;9.88;4.65;;;;;;;;;;5033228;28;20112;-74
2023/07/08 09:21:22;;;;;;;7.57;3.95;;;;;;;;;;5034104;28;20056;-74
2023/07/08 09:23:51;;;;;;;8.70;4.50;;;;;;;;;;5031403;28;20194;-70
2023/07/08 09:26:23;;;;;;;7.05;4.30;;;;;;;;;;5035444;28;20118;-71
2023/07/08 09:28:53;;;;;;;11.00;4.50;;;;;;;;;;5033399;28;20581;-71
2023/07/08 09:31:24;;;;;;;9.90;4.35;;;;;;;;;;5033661;28;20068;-70
2023/07/08 09:33:53;;;;;;;9.63;4.65;;;;;;;;;;5029280;28;20483;-70
2023/07/08 09:36:24;;;;;;;8.95;4.10;;;;;;;;;;5027164;28;20519;-73
2023/07/08 09:38:53;;;;;;;9.07;4.22;;;;;;;;;;5030899;28;20154;-73
2023/07/08 09:41:31;;;;;;;9.35;4.32;;;;;;;;;;5035063;28;20052;-70
2023/07/08 09:44:06;;;;;;;8.77;4.72;;;;;;;;;;5029034;28;20051;-70
2023/07/08 09:46:38;;;;;;;9.95;3.95;;;;;;;;;;4970383;28;20599;-69
2023/07/08 09:49:20;;;;;;;10.05;3.75;;;;;;;;;;4979470;28;20412;-67
2023/07/08 09:51:50;;;;;;;8.35;3.97;;;;;;;;;;4978177;28;20632;-72
2023/07/08 09:54:19;;;;;;;8.60;3.55;;;;;;;;;;4983924;28;20520;-68
2023/07/08 09:56:52;;;;;;;8.48;3.95;;;;;;;;;;4976151;28;20125;-73
2023/07/08 09:59:24;;;;;;;10.38;4.47;;;;;;;;;;4972662;28;20456;-69
2023/07/08 10:01:52;;;;;;;8.27;4.65;;;;;;;;;;4973361;28;20135;-70
2023/07/08 10:04:21;;;;;;;8.77;4.40;;;;;;;;;;4975029;28;20238;-68
2023/07/08 10:06:49;;;;;;;7.80;4.03;;;;;;;;;;4975277;28;20046;-73
2023/07/08 10:09:20;;;;;;;10.82;4.78;;;;;;;;;;4982939;28;20567;-70
2023/07/08 10:11:51;;;;;;;9.30;4.60;;;;;;;;;;4979458;28;20046;-69
2023/07/08 10:14:26;;;;;;;7.35;3.97;;;;;;;;;;4981343;28;20093;-70
2023/07/08 10:16:54;;;;;;;14.68;4.28;;;;;;;;;;4986249;28;20042;-67
2023/07/08 10:19:23;;;;;;;10.32;4.55;;;;;;;;;;5036526;28;20069;-68
2023/07/08 10:21:56;;;;;;;7.13;3.58;;;;;;;;;;5037350;28;20052;-70
2023/07/08 10:24:30;;;;;;;7.78;4.40;;;;;;;;;;5036080;28;22421;-68
2023/07/08 10:26:59;;;;;;;;;;;;;;;;;;5038073;28;20452;-70
2023/07/08 10:29:34;;;;;;;11.75;4.68;;;;;;;;;;5038657;28;19934;-69
2023/07/08 10:32:09;;;;;;;8.80;4.63;;;;;;;;;;5041551;28;20049;-71
2023/07/08 10:34:41;;;;;;;9.40;4.53;;;;;;;;;;5038010;28;20088;-71
2023/07/08 10:37:12;;;;;;;8.00;4.25;;;;;;;;;;5040090;28;20051;-69
2023/07/08 10:39:49;;;;;;;9.02;3.78;;;;;;;;;;5040544;28;20453;-70
2023/07/08 10:42:25;;;;;;;9.65;4.43;;;;;;;;;;5039809;28;20525;-71
2023/07/08 10:45:04;;;;;;;6.97;4.13;;;;;;;;;;5031793;28;20064;-69
2023/07/08 10:47:41;;;;;;;7.17;3.90;;;;;;;;;;5039011;28;20600;-71
2023/07/08 10:50:18;;;;;;;11.93;3.80;;;;;;;;;;5040283;28;20060;-73
2023/07/08 10:52:51;;;;;;;8.13;3.97;;;;;;;;;;5024758;28;20143;-68
2023/07/08 10:55:25;;;;;;;7.70;3.90;;;;;;;;;;5037824;28;20072;-67
2023/07/08 10:58:01;;;;;;;6.15;3.63;;;;;;;;;;5040900;28;20092;-69
2023/07/08 11:00:36;;;;;;;9.23;3.90;;;;;;;;;;5037255;28;20084;-70
2023/07/08 11:03:12;;;;;;;6.82;3.80;;;;;;;;;;5040057;28;20053;-66
2023/07/08 11:05:43;;;;;;;7.03;3.30;;;;;;;;;;5035449;28;20053;-70
2023/07/08 11:08:16;;;;;;;8.40;4.35;;;;;;;;;;5040735;28;20076;-67
2023/07/08 11:10:49;;;;;;;9.13;3.95;;;;;;;;;;5038502;28;20517;-68
2023/07/08 11:13:28;;;;;;;8.88;3.20;;;;;;;;;;5041349;28;20041;-69
2023/07/08 11:15:59;;;;;;;6.47;3.65;;;;;;;;;;5032086;28;20052;-68
2023/07/08 11:18:31;;;;;;;5.70;3.70;;;;;;;;;;5039957;28;20059;-73
2023/07/08 11:21:03;;;;;;;7.32;3.88;;;;;;;;;;5040009;28;20106;-69
2023/07/08 11:23:33;;;;;;;12.48;4.28;;;;;;;;;;5035132;28;20385;-67
2023/07/08 11:26:08;;;;;;;11.68;4.13;;;;;;;;;;5040564;28;20049;-73
2023/07/08 11:28:36;;;;;;;7.82;4.18;;;;;;;;;;5039421;28;20144;-69
2023/07/08 11:31:06;;;;;;;8.43;3.78;;;;;;;;;;5038627;28;20068;-69
2023/07/08 11:33:35;;;;;;;12.73;4.28;;;;;;;;;;5037085;28;20052;-70
2023/07/08 11:36:05;;;;;;;8.63;3.63;;;;;;;;;;5027933;28;20510;-69
2023/07/08 11:38:35;;;;;;;8.38;3.92;;;;;;;;;;5034090;28;20057;-68
2023/07/08 11:41:04;;;;;;;7.07;3.67;;;;;;;;;;5033556;28;21045;-70
2023/07/08 11:43:36;;;;;;;7.38;3.85;;;;;;;;;;5027535;28;20115;-70
2023/07/08 11:46:07;;;;;;;7.70;4.18;;;;;;;;;;5033876;28;20111;-69
2023/07/08 11:48:41;;;;;;;7.53;3.90;;;;;;;;;;5026072;28;20376;-67
2023/07/08 11:51:10;;;;;;;6.03;3.13;;;;;;;;;;5019262;28;20052;-68
2023/07/08 11:53:40;;;;;;;8.30;4.05;;;;;;;;;;5033834;28;20091;-68
2023/07/08 11:56:20;;;;;;;6.25;3.75;;;;;;;;;;5022474;28;20067;-73
2023/07/08 11:58:54;;;;;;;6.78;3.50;;;;;;;;;;5033068;28;20049;-73
2023/07/08 12:01:28;;;;;;;8.27;3.80;;;;;;;;;;5039341;28;20041;-69
2023/07/08 12:04:01;;;;;;;6.93;3.47;;;;;;;;;;5038543;28;20413;-70
2023/07/08 12:06:48;;;;;;;5.82;3.65;;;;;;;;;;5041938;28;20552;-71
2023/07/08 12:09:21;;;;;;;8.05;3.65;;;;;;;;;;5032153;28;20049;-68
2023/07/08 12:11:50;;;;;;;7.47;4.25;;;;;;;;;;5035333;28;20069;-72
2023/07/08 12:14:18;;;;;;;8.98;4.18;;;;;;;;;;5039177;28;20098;-72
2023/07/08 12:16:48;;;;;;;7.32;3.95;;;;;;;;;;5036769;28;20053;-74
2023/07/08 12:19:19;;;;;;;6.47;3.60;;;;;;;;;;5034852;28;20473;-70
2023/07/08 12:21:47;;;;;;;7.57;3.83;;;;;;;;;;5035400;28;20045;-74
2023/07/08 12:24:25;;;;;;;8.48;4.13;;;;;;;;;;5035717;28;21197;-70
2023/07/08 12:26:53;;;;;;;8.55;4.05;;;;;;;;;;5035711;28;20176;-74
2023/07/08 12:29:22;;;;;;;8.80;3.75;;;;;;;;;;5020247;28;20486;-70
2023/07/08 12:31:52;;;;;;;7.82;3.35;;;;;;;;;;5027207;28;20165;-73
2023/07/08 12:34:20;;;;;;;6.97;3.63;;;;;;;;;;5031002;28;20057;-70
2023/07/08 12:36:49;;;;;;;6.88;3.63;;;;;;;;;;5042093;28;20131;-71
2023/07/08 12:39:17;;;;;;;8.38;3.88;;;;;;;;;;5034774;28;20047;-71
2023/07/08 12:41:47;;;;;;;7.80;4.18;;;;;;;;;;5043625;28;20048;-69
2023/07/08 12:44:19;;;;;;;7.10;3.88;;;;;;;;;;5035837;28;20083;-74
2023/07/08 12:46:48;;;;;;;10.55;3.95;;;;;;;;;;5035734;28;20057;-72
2023/07/08 12:49:19;;;;;;;5.60;3.22;;;;;;;;;;5042255;28;20051;-70
2023/07/08 12:51:48;;;;;;;8.15;3.58;;;;;;;;;;5042361;28;20041;-70
2023/07/08 12:54:16;;;;;;;6.90;3.72;;;;;;;;;;5040593;28;20444;-69
2023/07/08 12:56:46;;;;;;;7.43;3.85;;;;;;;;;;5038342;28;20553;-69
2023/07/08 12:59:18;;;;;;;8.00;3.88;;;;;;;;;;5045019;28;20051;-70
2023/07/08 13:01:47;;;;;;;6.82;4.00;;;;;;;;;;5041351;28;20044;-69
2023/07/08 13:04:17;;;;;;;7.65;4.15;;;;;;;;;;5041740;28;20072;-69
2023/07/08 13:06:47;;;;;;;10.00;4.05;;;;;;;;;;5040164;28;20049;-69
2023/07/08 13:09:30;;;;;;;7.70;3.58;;;;;;;;;;5031467;28;20049;-69
2023/07/08 13:11:59;;;;;;;8.13;3.70;;;;;;;;;;5037407;28;20710;-70
2023/07/08 13:14:28;;;;;;;10.32;3.72;;;;;;;;;;5027562;28;20467;-69
2023/07/08 13:16:56;;;;;;;10.07;4.00;;;;;;;;;;5022557;28;20049;-70
2023/07/08 13:19:27;;;;;;;6.40;3.30;;;;;;;;;;5030994;28;20123;-70
2023/07/08 13:21:55;;;;;;;8.52;3.78;;;;;;;;;;5036716;28;20049;-69
2023/07/08 13:24:24;;;;;;;7.82;4.25;;;;;;;;;;5028239;28;20148;-70
2023/07/08 13:26:52;;;;;;;8.27;3.95;;;;;;;;;;5034453;28;20138;-69
2023/07/08 13:29:21;;;;;;;6.05;3.22;;;;;;;;;;5022890;28;20134;-71
2023/07/08 13:31:51;;;;;;;6.72;3.80;;;;;;;;;;5039852;28;20056;-78
2023/07/08 13:34:20;;;;;;;5.55;3.25;;;;;;;;;;5045928;28;20049;-69
2023/07/08 13:36:52;;;;;;;5.45;3.42;;;;;;;;;;5037290;28;21073;-74
2023/07/08 13:39:24;;;;;;;8.25;3.70;;;;;;;;;;5038045;28;20078;-72
2023/07/08 13:41:52;;;;;;;9.25;3.70;;;;;;;;;;5038095;28;20060;-72
2023/07/08 13:44:21;;;;;;;9.88;3.55;;;;;;;;;;5040708;28;20060;-71
2023/07/08 13:46:53;;;;;;;5.57;3.10;;;;;;;;;;5040749;28;20409;-70
2023/07/08 13:49:24;;;;;;;6.35;3.47;;;;;;;;;;5044039;28;20044;-71
2023/07/08 13:51:54;;;;;;;6.45;3.55;;;;;;;;;;5038092;28;20238;-70
2023/07/08 13:54:23;;;;;;;7.00;3.17;;;;;;;;;;5040556;28;20461;-70
2023/07/08 13:56:52;;;;;;;8.35;3.63;;;;;;;;;;5032155;28;20056;-70
2023/07/08 13:59:23;;;;;;;5.60;3.15;;;;;;;;;;5038420;28;20131;-68
2023/07/08 14:01:53;;;;;;;7.00;3.50;;;;;;;;;;5037621;28;20076;-75
2023/07/08 14:04:29;;;;;;;6.40;3.38;;;;;;;;;;5030727;28;20065;-71
2023/07/08 14:06:59;;;;;;;8.65;3.67;;;;;;;;;;5030817;28;20053;-67
2023/07/08 14:09:27;;;;;;;6.88;3.30;;;;;;;;;;5036154;28;20064;-68
2023/07/08 14:11:56;;;;;;;6.55;3.53;;;;;;;;;;5045265;28;20132;-68
2023/07/08 14:14:24;;;;;;;5.55;3.42;;;;;;;;;;5034118;28;20053;-67
2023/07/08 14:16:54;;;;;;;5.50;3.22;;;;;;;;;;5044686;28;20120;-70
2023/07/08 14:19:24;;;;;;;8.38;3.67;;;;;;;;;;5046362;28;20486;-68
2023/07/08 14:21:54;;;;;;;5.90;3.25;;;;;;;;;;5030820;28;20049;-67
2023/07/08 14:24:24;;;;;;;6.18;3.20;;;;;;;;;;5038756;28;20110;-64
2023/07/08 14:26:53;;;;;;;7.05;3.25;;;;;;;;;;5040435;28;20455;-66
2023/07/08 14:29:22;;;;;;;8.05;3.08;;;;;;;;;;5046342;28;20162;-74
2023/07/08 14:31:51;;;;;;;6.57;3.90;;;;;;;;;;5043808;28;20648;-76
2023/07/08 14:34:23;;;;;;;6.72;3.30;;;;;;;;;;5041432;28;20048;-63
2023/07/08 14:36:52;;;;;;;6.80;3.63;;;;;;;;;;5044993;28;20628;-66
2023/07/08 14:39:20;;;;;;;6.07;3.30;;;;;;;;;;5046321;28;20037;-68
2023/07/08 14:41:51;;;;;;;5.32;3.20;;;;;;;;;;5042694;28;20045;-64
2023/07/08 14:44:23;;;;;;;10.30;3.60;;;;;;;;;;5044081;28;20118;-66
2023/07/08 14:46:52;;;;;;;7.90;3.50;;;;;;;;;;5042130;28;20545;-69
2023/07/08 14:49:21;;;;;;;7.43;3.25;;;;;;;;;;5032547;28;20118;-62
2023/07/08 14:51:50;;;;;;;5.78;3.28;;;;;;;;;;5035094;28;20592;-62
2023/07/08 14:54:19;;;;;;;5.93;2.75;;;;;;;;;;5037417;28;20037;-70
2023/07/08 14:56:48;;;;;;;8.93;3.50;;;;;;;;;;5044778;28;20044;-70
2023/07/08 14:59:19;;;;;;;10.45;3.30;;;;;;;;;;5033050;28;20136;-65